Time;durP1;ratioP1;P1;durP2;ratioP2;P2;SDS_P1;SDS_P2;PMS_P1;PMS_P2;Temp;Humidity;BMP_temperature;BMP_pressure;BME280_temperature;BME280_humidity;BME280_pressure;Samples;Min_cycle;Max_cycle;Signal;HPM_P1;HPM_P2
2023/11/08 00:00:55;;;;;;;14.93;7.03;;;;;;;;;;5114709;28;20042;-73
2023/11/08 00:03:59;;;;;;;20.75;8.50;;;;;;;;;;5113783;28;20047;-71
2023/11/08 00:07:04;;;;;;;14.73;6.35;;;;;;;;;;5114743;28;20043;-71
2023/11/08 00:10:12;;;;;;;14.05;6.63;;;;;;;;;;5114494;28;20039;-71
2023/11/08 00:13:20;;;;;;;17.92;6.47;;;;;;;;;;5113321;28;20068;-72
2023/11/08 00:16:24;;;;;;;18.85;6.80;;;;;;;;;;5114885;28;20043;-72
2023/11/08 00:19:28;;;;;;;15.05;7.20;;;;;;;;;;5114043;28;20043;-71
2023/11/08 00:22:33;;;;;;;16.52;7.00;;;;;;;;;;5112996;28;20035;-71
2023/11/08 00:25:38;;;;;;;13.65;7.20;;;;;;;;;;5114364;28;20047;-71
2023/11/08 00:28:42;;;;;;;19.05;6.53;;;;;;;;;;5114037;28;20518;-72
2023/11/08 00:31:50;;;;;;;17.35;6.13;;;;;;;;;;5113700;28;20051;-72
2023/11/08 00:34:55;;;;;;;19.13;6.10;;;;;;;;;;5113959;28;20058;-72
2023/11/08 00:38:00;;;;;;;12.45;5.88;;;;;;;;;;5114040;28;20055;-72
2023/11/08 00:41:04;;;;;;;10.50;5.10;;;;;;;;;;5113893;28;20042;-72
2023/11/08 00:44:09;;;;;;;11.00;4.72;;;;;;;;;;5113882;28;20038;-71
2023/11/08 00:47:14;;;;;;;8.82;5.38;;;;;;;;;;5112929;28;20046;-71
2023/11/08 00:50:19;;;;;;;17.13;5.57;;;;;;;;;;5112685;28;20040;-71
2023/11/08 00:53:23;;;;;;;17.63;6.55;;;;;;;;;;5112531;28;20047;-72
2023/11/08 00:56:28;;;;;;;20.25;5.90;;;;;;;;;;5112764;28;20399;-72
2023/11/08 00:59:32;;;;;;;12.13;5.80;;;;;;;;;;5113315;28;20046;-71
2023/11/08 01:02:36;;;;;;;13.90;6.30;;;;;;;;;;5113172;28;20046;-72
2023/11/08 01:05:41;;;;;;;16.33;6.68;;;;;;;;;;5112661;28;20038;-72
2023/11/08 01:08:45;;;;;;;15.75;6.30;;;;;;;;;;5100895;28;20502;-72
2023/11/08 01:11:49;;;;;;;11.82;5.97;;;;;;;;;;5113286;28;20344;-73
2023/11/08 01:14:54;;;;;;;11.45;6.65;;;;;;;;;;5112431;28;20407;-73
2023/11/08 01:17:58;;;;;;;12.88;7.10;;;;;;;;;;5113315;28;20503;-72
2023/11/08 01:21:02;;;;;;;13.07;6.57;;;;;;;;;;5112793;28;20524;-72
2023/11/08 01:24:07;;;;;;;14.95;6.85;;;;;;;;;;5113029;28;20047;-73
2023/11/08 01:27:11;;;;;;;12.95;6.47;;;;;;;;;;5112791;28;20050;-72
2023/11/08 01:30:17;;;;;;;14.20;6.70;;;;;;;;;;5112622;28;20412;-72
2023/11/08 01:33:22;;;;;;;14.73;6.97;;;;;;;;;;5111533;28;20054;-72
2023/11/08 01:36:26;;;;;;;17.83;6.82;;;;;;;;;;5112907;28;20039;-72
2023/11/08 01:39:30;;;;;;;12.57;5.97;;;;;;;;;;5111753;28;20047;-72
2023/11/08 01:42:35;;;;;;;12.90;6.15;;;;;;;;;;5111468;28;20051;-72
2023/11/08 01:45:40;;;;;;;10.98;5.70;;;;;;;;;;5112633;28;20046;-72
2023/11/08 01:48:44;;;;;;;11.02;5.53;;;16.90;99.90;;;;;;5112546;28;20471;-73
2023/11/08 01:51:49;;;;;;;9.27;5.63;;;;;;;;;;5111912;28;20058;-71
2023/11/08 01:54:54;;;;;;;11.27;5.97;;;;;;;;;;5113014;28;20511;-71
2023/11/08 01:57:59;;;;;;;11.75;5.97;;;;;;;;;;5112272;28;20035;-73
2023/11/08 02:01:07;;;;;;;11.65;4.95;;;;;;;;;;5100078;28;20048;-72
2023/11/08 02:04:13;;;;;;;10.80;4.53;;;;;;;;;;5111427;28;20043;-73
2023/11/08 02:07:17;;;;;;;9.82;5.47;;;;;;;;;;5112089;28;20047;-71
2023/11/08 02:10:22;;;;;;;13.88;5.30;;;;;;;;;;5111250;28;20158;-72
2023/11/08 02:13:29;;;;;;;13.48;5.68;;;;;;;;;;5111444;28;20058;-72
2023/11/08 02:16:34;;;;;;;7.88;4.82;;;;;;;;;;5112121;28;20042;-71
2023/11/08 02:19:38;;;;;;;12.70;5.05;;;;;;;;;;5112408;28;20036;-72
2023/11/08 02:22:42;;;;;;;14.02;4.63;;;;;;;;;;5111759;28;20498;-71
2023/11/08 02:25:47;;;;;;;9.38;5.35;;;;;;;;;;5112236;28;20422;-73
2023/11/08 02:28:51;;;;;;;9.75;4.93;;;;;;;;;;5111633;28;20031;-72
2023/11/08 02:31:56;;;;;;;10.52;4.70;;;;;;;;;;5111669;28;20039;-72
2023/11/08 02:35:00;;;;;;;10.27;4.95;;;;;;;;;;5111914;28;20074;-73
2023/11/08 02:38:06;;;;;;;13.93;4.90;;;;;;;;;;5110635;28;20043;-71
2023/11/08 02:41:10;;;;;;;11.10;4.30;;;;;;;;;;5111038;28;20404;-73
2023/11/08 02:44:14;;;;;;;13.93;4.90;;;;;;;;;;5111361;28;20051;-72
2023/11/08 02:47:19;;;;;;;10.85;4.65;;;;;;;;;;5110785;28;20067;-72
2023/11/08 02:50:23;;;;;;;13.00;4.68;;;;;;;;;;5111614;28;20039;-72
2023/11/08 02:53:28;;;;;;;10.07;4.88;;;;;;;;;;5110556;28;20055;-73
2023/11/08 02:56:40;;;;;;;10.43;4.70;;;16.50;99.90;;;;;;5111799;28;20389;-72
2023/11/08 02:59:45;;;;;;;9.98;4.65;;;;;;;;;;5110531;28;20043;-72
2023/11/08 03:02:51;;;;;;;10.52;4.57;;;;;;;;;;5112206;28;20510;-70
2023/11/08 03:05:55;;;;;;;12.02;4.68;;;;;;;;;;5114839;28;20587;-72
2023/11/08 03:09:00;;;;;;;8.25;4.65;;;;;;;;;;5115784;28;20046;-72
2023/11/08 03:12:05;;;;;;;8.02;4.63;;;;;;;;;;5115651;28;20043;-72
2023/11/08 03:15:11;;;;;;;12.35;4.35;;;;;;;;;;5115687;28;20044;-72
2023/11/08 03:18:18;;;;;;;10.75;4.30;;;;;;;;;;5115434;28;20353;-71
2023/11/08 03:21:22;;;;;;;7.97;3.67;;;;;;;;;;5115295;28;20042;-72
2023/11/08 03:24:26;;;;;;;13.82;3.90;;;;;;;;;;5114503;28;20040;-73
2023/11/08 03:27:30;;;;;;;9.32;3.90;;;;;;;;;;5115532;28;20063;-72
2023/11/08 03:30:36;;;;;;;12.57;4.40;;;;;;;;;;5114785;28;20039;-72
2023/11/08 03:33:40;;;;;;;11.35;3.95;;;;;;;;;;5114911;28;20051;-72
2023/11/08 03:36:47;;;;;;;11.25;3.80;;;;;;;;;;5115183;28;20034;-71
2023/11/08 03:39:51;;;;;;;7.47;3.35;;;;;;;;;;5114856;28;20042;-72
2023/11/08 03:42:56;;;;;;;8.25;2.70;;;;;;;;;;5115112;28;20031;-71
2023/11/08 03:46:00;;;;;;;10.27;2.85;;;;;;;;;;5102225;28;20376;-73
2023/11/08 03:49:05;;;;;;;7.78;2.92;;;;;;;;;;5115007;28;20046;-73
2023/11/08 03:52:09;;;;;;;9.10;3.35;;;;;;;;;;5114648;28;20039;-71
2023/11/08 03:55:13;;;;;;;7.05;3.63;;;;;;;;;;5114550;28;20044;-72
2023/11/08 03:58:17;;;;;;;9.95;3.78;;;;;;;;;;5114718;28;20372;-72
2023/11/08 04:01:25;;;;;;;10.02;3.72;;;;;;;;;;5114294;28;20484;-72
2023/11/08 04:04:29;;;;;;;9.50;3.83;;;;;;;;;;5114749;28;20399;-72
2023/11/08 04:07:33;;;;;;;11.35;4.10;;;;;;;;;;5114433;28;20035;-71
2023/11/08 04:10:37;;;;;;;9.27;4.30;;;;;;;;;;5114549;28;20043;-71
2023/11/08 04:13:42;;;;;;;16.77;6.47;;;;;;;;;;5113886;28;20047;-71
2023/11/08 04:16:46;;;;;;;11.05;4.97;;;;;;;;;;5114527;28;20043;-71
2023/11/08 04:19:51;;;;;;;11.68;4.95;;;;;;;;;;5114454;28;20039;-72
2023/11/08 04:22:56;;;;;;;15.27;4.82;;;;;;;;;;5114180;28;20387;-71
2023/11/08 04:26:00;;;;;;;14.60;4.68;;;;;;;;;;5114495;28;20125;-72
2023/11/08 04:29:04;;;;;;;12.07;3.80;;;;;;;;;;5114177;28;20384;-71
2023/11/08 04:32:09;;;;;;;6.70;3.75;;;;;;;;;;5112874;28;20635;-71
2023/11/08 04:35:17;;;;;;;9.18;3.60;;;;;;;;;;5113847;28;20035;-72
2023/11/08 04:38:21;;;;;;;7.47;3.42;;;;;;;;;;5113735;28;20563;-71
2023/11/08 04:41:25;;;;;;;10.00;3.88;;;;;;;;;;5113811;28;20039;-72
2023/11/08 04:44:30;;;;;;;11.65;4.05;;;;;;;;;;5113630;28;20043;-72
2023/11/08 04:47:37;;;;;;;11.10;4.80;;;;;;;;;;5113616;28;20042;-72
2023/11/08 04:50:41;;;;;;;11.27;4.50;;;;;;;;;;5113550;28;20046;-72
2023/11/08 04:53:45;;;;;;;10.15;4.88;;;;;;;;;;5113718;28;20122;-73
2023/11/08 04:56:49;;;;;;;13.70;5.45;;;;;;;;;;5113711;28;20490;-72
2023/11/08 04:59:53;;;;;;;14.07;5.85;;;;;;;;;;5114194;28;20042;-72
2023/11/08 05:02:58;;;;;;;12.43;6.18;;;;;;;;;;5114241;28;20518;-72
2023/11/08 05:06:03;;;;;;;12.27;4.22;;;;;;;;;;5114017;28;20047;-73
2023/11/08 05:09:07;;;;;;;6.15;4.43;;;;;;;;;;5113299;28;20042;-73
2023/11/08 05:12:12;;;;;;;11.27;4.70;;;;;;;;;;5113094;28;20039;-72
2023/11/08 05:15:17;;;;;;;9.85;4.85;;;;;;;;;;5112945;28;20046;-71
2023/11/08 05:18:21;;;;;;;9.02;4.75;;;;;;;;;;5113184;28;20044;-71
2023/11/08 05:21:29;;;;;;;12.25;5.55;;;;;;;;;;5113058;28;20039;-72
2023/11/08 05:24:33;;;;;;;12.13;4.72;;;;;;;;;;5113210;28;20054;-71
2023/11/08 05:27:37;;;;;;;13.93;5.47;;;;;;;;;;5112838;28;20042;-71
2023/11/08 05:30:41;;;;;;;12.00;5.53;;;;;;;;;;5112815;28;20407;-73
2023/11/08 05:33:46;;;;;;;10.02;5.30;;;;;;;;;;5112479;28;20059;-72
2023/11/08 05:36:50;;;;;;;13.65;4.82;;;;;;;;;;5112503;28;20043;-71
2023/11/08 05:39:55;;;;;;;12.82;5.22;;;;;;;;;;5112703;28;20415;-72
2023/11/08 05:42:59;;;;;;;9.32;4.47;;;;;;;;;;5112464;28;20042;-73
2023/11/08 05:46:03;;;;;;;8.48;4.65;;;;;;;;;;5112896;28;20039;-72
2023/11/08 05:49:08;;;;;;;9.80;4.00;;;;;;;;;;5112527;28;20035;-73
2023/11/08 05:52:13;;;;;;;13.75;4.38;;;;;;;;;;5112579;28;20043;-73
2023/11/08 05:55:17;;;;;;;10.55;4.32;;;;;;;;;;5112267;28;20059;-72
2023/11/08 05:58:24;;;;;;;16.13;4.38;;;;;;;;;;5112587;28;20038;-72
2023/11/08 06:01:28;;;;;;;8.02;3.95;;;;;;;;;;5112135;28;20407;-71
2023/11/08 06:04:34;;;;;;;10.43;3.58;;;;;;;;;;5112536;28;20039;-71
2023/11/08 06:07:40;;;;;;;9.55;3.22;;;;;;;;;;5112317;28;20062;-72
2023/11/08 06:10:45;;;;;;;8.55;2.95;;;;;;;;;;5112064;28;20036;-71
2023/11/08 06:13:49;;;;;;;8.13;2.60;;;;;;;;;;5111853;28;20380;-72
2023/11/08 06:16:55;;;;;;;9.85;2.80;;;;;;;;;;5112772;28;20043;-73
2023/11/08 06:19:59;;;;;;;9.85;2.53;;;;;;;;;;5111969;28;20028;-72
2023/11/08 06:23:04;;;;;;;7.25;2.17;;;;;;;;;;5111628;28;20027;-68
2023/11/08 06:26:09;;;;;;;11.82;2.58;;;;;;;;;;5111893;28;20031;-66
2023/11/08 06:29:13;;;;;;;5.43;2.10;;;;;;;;;;5111643;28;20042;-67
2023/11/08 06:32:20;;;;;;;6.07;2.40;;;;;;;;;;5111431;28;20044;-68
2023/11/08 06:35:24;;;;;;;3.72;1.63;;;;;;;;;;5111382;28;20047;-68
2023/11/08 06:38:28;;;;;;;5.43;1.58;;;;;;;;;;5111346;28;20032;-68
2023/11/08 06:41:33;;;;;;;7.13;1.70;;;;;;;;;;5110395;28;20491;-66
2023/11/08 06:44:37;;;;;;;6.10;1.42;;;;;;;;;;5111344;28;20036;-67
2023/11/08 06:47:42;;;;;;;4.38;1.20;;;;;;;;;;5111773;28;20394;-67
2023/11/08 06:50:46;;;;;;;7.57;1.30;;;;;;;;;;5111413;28;20035;-68
2023/11/08 06:53:50;;;;;;;4.55;1.60;;;;;;;;;;5110684;28;20048;-67
2023/11/08 06:56:54;;;;;;;11.05;1.80;;;;;;;;;;5111344;28;20035;-66
2023/11/08 06:59:59;;;;;;;8.07;1.80;;;;;;;;;;5111461;28;20046;-68
2023/11/08 07:03:05;;;;;;;2.53;1.30;;;;;;;;;;5111055;28;20035;-69
2023/11/08 07:06:08;;;;;;;3.85;1.50;;;;;;;;;;5111239;28;20043;-67
2023/11/08 07:09:14;;;;;;;8.38;1.58;;;;;;;;;;5111064;28;20035;-68
2023/11/08 07:12:18;;;;;;;6.25;1.73;;;;;;;;;;5111128;28;20039;-67
2023/11/08 07:15:23;;;;;;;6.03;1.75;;;;;;;;;;5111166;28;20376;-69
2023/11/08 07:18:27;;;;;;;5.28;1.40;;;;;;;;;;5111703;28;20036;-69
2023/11/08 07:21:31;;;;;;;5.20;1.50;;;;;;;;;;5110490;28;20044;-70
2023/11/08 07:24:36;;;;;;;6.93;1.90;;;;;;;;;;5111507;28;20061;-70
2023/11/08 07:27:40;;;;;;;8.65;2.03;;;;;;;;;;5111198;28;20040;-70
2023/11/08 07:30:46;;;;;;;7.85;2.10;;;;;;;;;;5111014;28;20058;-69
2023/11/08 07:33:50;;;;;;;8.25;2.05;;;;;;;;;;5109886;28;20044;-68
2023/11/08 07:36:55;;;;;;;5.93;2.10;;;;;;;;;;5111021;28;20028;-72
2023/11/08 07:39:59;;;;;;;8.75;1.98;;;;;;;;;;5111366;28;20031;-71
2023/11/08 07:43:03;;;;;;;5.93;1.65;;;;;;;;;;5111131;28;20471;-70
2023/11/08 07:46:08;;;;;;;9.32;2.00;;;;;;;;;;5111163;28;20062;-70
2023/11/08 07:49:12;;;;;;;6.35;1.77;;;;;;;;;;5112166;28;20036;-71
2023/11/08 07:52:16;;;;;;;5.45;1.88;;;;;;;;;;5114395;28;20040;-71
2023/11/08 07:55:21;;;;;;;7.57;2.42;;;;;;;;;;5113924;28;20052;-70
2023/11/08 07:58:25;;;;;;;7.32;2.53;;;;;;;;;;5114768;28;20039;-68
2023/11/08 08:01:29;;;;;;;6.30;2.25;;;;;;;;;;5114286;28;20032;-70
2023/11/08 08:04:35;;;;;;;8.27;2.78;;;;;;;;;;5114313;28;20027;-70
2023/11/08 08:07:39;;;;;;;6.40;2.80;;;;;;;;;;5114375;28;20039;-70
2023/11/08 08:10:45;;;;;;;5.88;1.98;;;;;;;;;;5113811;28;20036;-68
2023/11/08 08:13:49;;;;;;;9.13;2.70;;;;;;;;;;5114388;28;20043;-69
2023/11/08 08:16:55;;;;;;;7.38;2.50;;;;;;;;;;5112320;28;20032;-69
2023/11/08 08:20:00;;;;;;;9.88;2.80;;;;;;;;;;5112342;28;20043;-68
2023/11/08 08:23:09;;;;;;;7.05;3.00;;;;;;;;;;5112953;28;20364;-69
2023/11/08 08:26:13;;;;;;;7.20;2.53;;;;;;;;;;5113239;28;20039;-68
2023/11/08 08:29:18;;;;;;;9.68;3.50;;;;;;;;;;5113372;28;20408;-67
2023/11/08 08:32:23;;;;;;;9.65;2.70;;;;;;;;;;5113054;28;20039;-69
2023/11/08 08:35:28;;;;;;;11.40;3.53;;;;;;;;;;5112463;28;20047;-69
2023/11/08 08:38:37;;;;;;;11.45;2.85;;;;;;;;;;5113366;28;20046;-68
2023/11/08 08:41:45;;;;;;;10.30;3.20;;;;;;;;;;5113473;28;20047;-69
2023/11/08 08:44:49;;;;;;;9.88;4.03;;;;;;;;;;5113459;28;20042;-68
2023/11/08 08:47:55;;;;;;;12.15;3.80;;;;;;;;;;5113568;28;20036;-68
2023/11/08 08:51:01;;;;;;;17.40;5.38;;;;;;;;;;5112751;28;20043;-68
2023/11/08 08:54:06;;;;;;;12.32;4.72;;;;;;;;;;5112214;28;20493;-68
2023/11/08 08:57:11;;;;;;;13.55;6.10;;;;;;;;;;5113156;28;20450;-69
2023/11/08 09:00:18;;;;;;;16.05;5.07;;;;;;;;;;5112460;28;20047;-67
2023/11/08 09:03:22;;;;;;;13.90;4.70;;;;;;;;;;5112831;28;20395;-68
2023/11/08 09:06:29;;;;;;;19.88;6.35;;;;;;;;;;5113156;28;20038;-67
2023/11/08 09:09:33;;;;;;;14.18;4.22;;;;;;;;;;5112991;28;20043;-68
2023/11/08 09:12:38;;;;;;;6.97;2.63;;;;;;;;;;5112725;28;20034;-68
2023/11/08 09:15:42;;;;;;;6.88;2.78;;;;;;;;;;5112733;28;20135;-68
2023/11/08 09:18:48;;;;;;;8.63;3.13;;;;;;;;;;5113059;28;20052;-68
2023/11/08 09:21:53;;;;;;;9.25;3.63;;;;;;;;;;5112725;28;20072;-69
2023/11/08 09:24:57;;;;;;;9.10;3.00;;;;;;;;;;5112492;28;20151;-69
2023/11/08 09:28:01;;;;;;;9.60;3.50;;;;;;;;;;5112585;28;20032;-68
2023/11/08 09:31:06;;;;;;;10.20;2.20;;;;;;;;;;5099741;28;20055;-69
2023/11/08 09:34:10;;;;;;;10.80;2.42;;;;;;;;;;5112892;28;20054;-69
2023/11/08 09:37:14;;;;;;;9.90;2.80;;;;;;;;;;5112839;28;20050;-68
2023/11/08 09:40:20;;;;;;;8.35;2.53;;;;;;;;;;5112477;28;20525;-69
2023/11/08 09:43:25;;;;;;;8.23;2.63;;;;;;;;;;5111821;28;20040;-69
2023/11/08 09:46:31;;;;;;;11.05;3.38;;;;;;;;;;5112403;28;20035;-71
2023/11/08 09:49:36;;;;;;;8.13;2.60;;;;;;;;;;5111456;28;20035;-68
2023/11/08 09:52:41;;;;;;;8.98;2.08;;;;;;;;;;5113104;28;20040;-67
2023/11/08 09:55:45;;;;;;;5.78;2.10;;;;;;;;;;5111923;28;20384;-69
2023/11/08 09:58:51;;;;;;;6.40;2.13;;;;;;;;;;5112521;28;20043;-68
2023/11/08 10:01:57;;;;;;;6.35;2.13;;;;;;;;;;5112801;28;20044;-69
2023/11/08 10:05:06;;;;;;;7.53;2.35;;;;;;;;;;5112182;28;20503;-68
2023/11/08 10:08:11;;;;;;;7.82;2.50;;;;;;;;;;5112314;28;20047;-69
2023/11/08 10:11:17;;;;;;;6.30;2.00;;;;;;;;;;5112045;28;20044;-68
2023/11/08 10:14:32;;;;;;;7.05;2.42;;;15.40;99.90;;;;;;5111883;28;20051;-69
2023/11/08 10:17:43;;;;;;;9.10;2.53;;;15.70;99.90;;;;;;5112214;28;20043;-69
2023/11/08 10:21:06;;;;;;;10.75;2.50;;;;;;;;;;5111598;28;20498;-69
2023/11/08 10:24:11;;;;;;;8.48;3.08;;;;;;;;;;5110686;28;20039;-67
2023/11/08 10:27:18;;;;;;;6.43;3.05;;;;;;;;;;5111755;28;20039;-68
2023/11/08 10:30:23;;;;;;;6.28;2.78;;;;;;;;;;5111028;28;20052;-70
2023/11/08 10:33:27;;;;;;;8.88;2.97;;;;;;;;;;5111441;28;20043;-68
2023/11/08 10:36:34;;;;;;;8.40;3.20;;;;;;;;;;5110973;28;20047;-68
2023/11/08 10:39:40;;;;;;;11.63;4.20;;;;;;;;;;5111302;28;20036;-68
2023/11/08 10:42:51;;;;;;;9.48;4.10;;;;;;;;;;5110236;28;20058;-69
2023/11/08 10:45:55;;;;;;;;;;;;;;;;;;5111715;28;20032;-68
2023/11/08 10:49:00;;;;;;;13.02;3.88;;;;;;;;;;5111298;28;19915;-68
2023/11/08 10:52:09;;;;;;;12.75;3.85;;;;;;;;;;5111414;28;20061;-68
2023/11/08 10:55:14;;;;;;;11.45;4.50;;;;;;;;;;5110302;28;20058;-69
2023/11/08 10:58:20;;;;;;;11.25;3.97;;;;;;;;;;5111263;28;20043;-67
2023/11/08 11:01:26;;;;;;;12.05;3.47;;;;;;;;;;5111149;28;20042;-68
2023/11/08 11:04:31;;;;;;;17.50;5.00;;;;;;;;;;5111030;28;20046;-69
2023/11/08 11:07:39;;;;;;;12.18;4.38;;;;;;;;;;5110293;28;20361;-68
2023/11/08 11:10:44;;;;;;;13.75;4.60;;;;;;;;;;5111307;28;20043;-68
2023/11/08 11:13:52;;;;;;;13.77;4.32;;;;;;;;;;5110929;28;20043;-67
2023/11/08 11:17:10;;;;;;;9.18;4.22;;;;;;;;;;5110915;28;20050;-68
2023/11/08 11:20:16;;;;;;;8.15;4.63;;;;;;;;;;5111251;28;20032;-68
2023/11/08 11:23:39;;;;;;;10.95;4.40;;;17.10;99.90;;;;;;5110806;28;20039;-68
2023/11/08 11:26:46;;;;;;;12.25;4.03;;;15.90;99.90;;;;;;5115175;28;20039;-68
2023/11/08 11:30:10;;;;;;;8.50;3.13;;;;;;;;;;5115055;28;20038;-68
2023/11/08 11:33:32;;;;;;;7.47;2.97;;;;;;;;;;5114909;28;20388;-68
2023/11/08 11:37:06;;;;;;;11.32;3.58;;;;;;;;;;5115156;28;20047;-69
2023/11/08 11:40:13;;;;;;;13.32;3.05;;;;;;;;;;5119312;28;20034;-70
2023/11/08 11:43:35;;;;;;;7.45;2.83;;;;;;;;;;5114675;28;20047;-69
2023/11/08 11:46:39;;;;;;;8.07;3.08;;;;;;;;;;5114624;28;20039;-69
2023/11/08 11:49:51;;;;;;;8.35;3.15;;;16.20;99.90;;;;;;5114881;28;20036;-71
2023/11/08 11:52:55;;;;;;;9.38;2.80;;;;;;;;;;5114614;28;20046;-69
2023/11/08 11:56:05;;;;;;;10.32;2.72;;;;;;;;;;5114497;28;20044;-69
2023/11/08 11:59:09;;;;;;;7.13;2.65;;;;;;;;;;5114367;28;20035;-70
2023/11/08 12:02:14;;;;;;;4.72;2.13;;;;;;;;;;5114289;28;20031;-70
2023/11/08 12:05:18;;;;;;;5.95;1.90;;;;;;;;;;5113923;28;20369;-70
2023/11/08 12:08:29;;;;;;;5.32;1.58;;;;;;;;;;5113309;28;20040;-69
2023/11/08 12:11:32;;;;;;;7.03;1.77;;;;;;;;;;5114417;28;20369;-70
2023/11/08 12:14:39;;;;;;;11.38;2.78;;;;;;;;;;5113176;28;20043;-68
2023/11/08 12:17:50;;;;;;;9.20;3.10;;;;;;;;;;5113936;28;20039;-68
2023/11/08 12:20:54;;;;;;;;;;;;;;;;;;5113693;28;20039;-70
2023/11/08 12:24:02;;;;;;;6.55;2.10;;;;;;;;;;5113965;28;19915;-71
2023/11/08 12:27:06;;;;;;;11.80;2.70;;;;;;;;;;5114028;28;20043;-69
2023/11/08 12:30:11;;;;;;;7.10;3.08;;;;;;;;;;5113781;28;20051;-69
2023/11/08 12:33:15;;;;;;;9.15;3.22;;;;;;;;;;5113604;28;20044;-70
2023/11/08 12:36:20;;;;;;;8.93;2.30;;;;;;;;;;5113615;28;20043;-69
2023/11/08 12:39:25;;;;;;;7.38;2.50;;;;;;;;;;5113640;28;20032;-70
2023/11/08 12:42:31;;;;;;;8.77;2.60;;;18.20;99.90;;;;;;5113522;28;20043;-69
2023/11/08 12:45:35;;;;;;;12.02;2.50;;;;;;;;;;5113519;28;20110;-70
2023/11/08 12:48:40;;;;;;;9.02;2.40;;;;;;;;;;5113205;28;20399;-69
2023/11/08 12:51:44;;;;;;;9.93;2.53;;;;;;;;;;5113149;28;20040;-70
2023/11/08 12:54:56;;;;;;;10.43;2.55;;;;;;;;;;5110974;28;20040;-67
2023/11/08 12:58:19;;;;;;;9.70;2.85;;;;;;;;;;5111464;28;20542;-69
2023/11/08 13:01:24;;;;;;;6.65;1.80;;;;;;;;;;5112575;28;20039;-69
2023/11/08 13:04:29;;;;;;;6.13;1.95;;;;;;;;;;5111915;28;20373;-69
2023/11/08 13:07:33;;;;;;;8.48;2.10;;;;;;;;;;5112774;28;20040;-69
2023/11/08 13:10:39;;;;;;;11.18;2.97;;;;;;;;;;5112840;28;20039;-69
2023/11/08 13:13:44;;;;;;;9.25;2.50;;;;;;;;;;5112854;28;20474;-68
2023/11/08 13:16:48;;;;;;;6.85;2.60;;;;;;;;;;5112961;28;20501;-68
2023/11/08 13:19:52;;;;;;;10.93;2.50;;;;;;;;;;5112970;28;20037;-68
2023/11/08 13:22:56;;;;;;;7.40;2.65;;;;;;;;;;5112783;28;20399;-70
2023/11/08 13:26:01;;;;;;;11.10;2.80;;;;;;;;;;5110326;28;20040;-70
2023/11/08 13:29:06;;;;;;;11.85;2.90;;;;;;;;;;5111088;28;20391;-69
2023/11/08 13:32:10;;;;;;;10.70;2.50;;;;;;;;;;5111367;28;20510;-70
2023/11/08 13:35:15;;;;;;;9.23;2.53;;;;;;;;;;5112290;28;20507;-70
2023/11/08 13:38:19;;;;;;;7.80;2.70;;;;;;;;;;5112317;28;20098;-69
2023/11/08 13:41:25;;;;;;;9.43;3.40;;;;;;;;;;5111233;28;20043;-68
2023/11/08 13:44:31;;;;;;;10.68;3.22;;;;;;;;;;5112684;28;20031;-69
2023/11/08 13:47:38;;;;;;;11.38;3.17;;;;;;;;;;5112187;28;20042;-70
2023/11/08 13:50:43;;;;;;;17.58;3.50;;;;;;;;;;5111939;28;20035;-69
2023/11/08 13:53:47;;;;;;;9.40;3.28;;;;;;;;;;5112363;28;20043;-70
2023/11/08 13:56:52;;;;;;;16.35;3.50;;;;;;;;;;5112464;28;20380;-69
2023/11/08 13:59:57;;;;;;;9.63;3.55;;;;;;;;;;5112269;28;20455;-69
2023/11/08 14:03:03;;;;;;;11.73;3.13;;;;;;;;;;5112330;28;20039;-69
2023/11/08 14:06:08;;;;;;;8.52;3.47;;;;;;;;;;5112332;28;20038;-69
2023/11/08 14:09:12;;;;;;;12.13;3.42;;;;;;;;;;5111315;28;20043;-69
2023/11/08 14:12:17;;;;;;;7.97;3.25;;;;;;;;;;5111832;28;20398;-70
2023/11/08 14:15:21;;;;;;;12.05;4.53;;;;;;;;;;5111857;28;20052;-68
2023/11/08 14:18:25;;;;;;;16.60;3.85;;;;;;;;;;5111772;28;20042;-69
2023/11/08 14:21:30;;;;;;;13.13;3.35;;;;;;;;;;5111892;28;20050;-69
2023/11/08 14:24:34;;;;;;;14.38;4.88;;;;;;;;;;5111925;28;20058;-69
2023/11/08 14:27:39;;;;;;;14.20;3.55;;;;;;;;;;5111781;28;20050;-70
2023/11/08 14:30:44;;;;;;;12.15;5.30;;;;;;;;;;5111239;28;20517;-69
2023/11/08 14:33:48;;;;;;;17.75;4.32;;;;;;;;;;5111777;28;20035;-69
2023/11/08 14:36:53;;;;;;;10.38;4.00;;;;;;;;;;5111311;28;20611;-69
2023/11/08 14:40:00;;;;;;;11.93;3.50;;;;;;;;;;5111432;28;20043;-70
2023/11/08 14:43:04;;;;;;;14.23;3.75;;;;;;;;;;5111794;28;20046;-70
2023/11/08 14:46:11;;;;;;;13.02;3.55;;;;;;;;;;5111768;28;20051;-69
2023/11/08 14:49:15;;;;;;;13.63;4.80;;;;;;;;;;5111351;28;20050;-69
2023/11/08 14:52:19;;;;;;;17.95;3.45;;;;;;;;;;5111318;28;20043;-69
2023/11/08 14:55:24;;;;;;;12.05;3.60;;;;;;;;;;5111449;28;20055;-72
2023/11/08 14:58:28;;;;;;;18.77;2.78;;;;;;;;;;5113021;28;20050;-70
2023/11/08 15:01:33;;;;;;;12.43;2.92;;;;;;;;;;5116123;28;20061;-68
2023/11/08 15:04:38;;;;;;;12.93;3.33;;;16.80;99.90;;;;;;5116492;28;20050;-68
2023/11/08 15:07:43;;;;;;;9.52;2.95;;;;;;;;;;5116407;28;20047;-73
2023/11/08 15:10:47;;;;;;;9.82;2.83;;;;;;;;;;5115779;28;20031;-69
2023/11/08 15:13:52;;;;;;;12.85;4.28;;;;;;;;;;5116016;28;20032;-71
2023/11/08 15:17:16;;;;;;;8.93;3.00;;;;;;;;;;5115645;28;20046;-72
2023/11/08 15:20:21;;;;;;;9.30;3.28;;;;;;;;;;5115845;28;20040;-72
2023/11/08 15:23:26;;;;;;;11.80;4.75;;;;;;;;;;5115513;28;20036;-70
2023/11/08 15:26:30;;;;;;;16.63;5.25;;;;;;;;;;5115687;28;20055;-72
2023/11/08 15:29:35;;;;;;;19.58;4.60;;;;;;;;;;5115216;28;20491;-70
2023/11/08 15:32:39;;;;;;;16.55;3.80;;;;;;;;;;5115305;28;20055;-67
2023/11/08 15:35:43;;;;;;;11.40;4.53;;;;;;;;;;5114763;28;20070;-70
2023/11/08 15:38:53;;;;;;;11.05;5.00;;;;;;;;;;5114269;28;20046;-69
2023/11/08 15:41:57;;;;;;;16.50;5.93;;;;;;;;;;5114562;28;20066;-70
2023/11/08 15:45:01;;;;;;;19.70;5.00;;;;;;;;;;5114924;28;20062;-70
2023/11/08 15:48:05;;;;;;;14.65;4.32;;;;;;;;;;5114822;28;20035;-69
2023/11/08 15:51:10;;;;;;;21.10;6.15;;;;;;;;;;5114610;28;20532;-69
2023/11/08 15:54:15;;;;;;;15.00;4.07;;;;;;;;;;5114566;28;20043;-69
2023/11/08 15:57:21;;;;;;;12.80;5.35;;;;;;;;;;5114307;28;20051;-69
2023/11/08 16:00:25;;;;;;;13.60;4.25;;;;;;;;;;5114244;28;20031;-69
2023/11/08 16:03:29;;;;;;;17.98;5.72;;;;;;;;;;5114330;28;20042;-68
2023/11/08 16:06:33;;;;;;;16.90;6.03;;;;;;;;;;5114208;28;20047;-68
2023/11/08 16:09:40;;;;;;;12.15;4.90;;;;;;;;;;5113567;28;20050;-69
2023/11/08 16:12:44;;;;;;;14.00;4.88;;;;;;;;;;5112369;28;20043;-68
2023/11/08 16:15:49;;;;;;;19.88;7.03;;;;;;;;;;5112933;28;20066;-68
2023/11/08 16:18:53;;;;;;;35.95;14.63;;;;;;;;;;5113120;28;20043;-68
2023/11/08 16:21:58;;;;;;;42.10;17.52;;;;;;;;;;5113309;28;20079;-68
2023/11/08 16:25:02;;;;;;;22.73;7.65;;;;;;;;;;5113768;28;20039;-68
2023/11/08 16:28:07;;;;;;;18.80;6.63;;;;;;;;;;5114344;28;20047;-68
2023/11/08 16:31:11;;;;;;;16.42;6.32;;;;;;;;;;5113562;28;20399;-69
2023/11/08 16:34:16;;;;;;;16.92;6.93;;;;;;;;;;5113955;28;20050;-69
2023/11/08 16:37:21;;;;;;;16.80;6.57;;;;;;;;;;5113613;28;20054;-72
2023/11/08 16:40:27;;;;;;;13.65;6.32;;;;;;;;;;5113472;28;20047;-69
2023/11/08 16:43:31;;;;;;;17.02;6.65;;;;;;;;;;5113654;28;20050;-68
2023/11/08 16:46:35;;;;;;;26.60;8.00;;;;;;;;;;5113479;28;20047;-70
2023/11/08 16:49:40;;;;;;;33.20;23.10;;;;;;;;;;5112993;28;20046;-71
2023/11/08 16:52:44;;;;;;;38.85;29.40;;;;;;;;;;5113558;28;20050;-68
2023/11/08 16:55:49;;;;;;;22.02;11.00;;;;;;;;;;5113357;28;20058;-72
2023/11/08 16:58:59;;;;;;;17.98;7.95;;;;;;;;;;5113668;28;20039;-76
2023/11/08 17:02:03;;;;;;;19.20;9.20;;;;;;;;;;5112338;28;20045;-69
2023/11/08 17:05:08;;;;;;;18.17;8.38;;;;;;;;;;5113323;28;20142;-68
2023/11/08 17:08:12;;;;;;;15.80;7.78;;;;;;;;;;5112946;28;20605;-67
2023/11/08 17:11:16;;;;;;;22.15;8.88;;;;;;;;;;5112906;28;20038;-67
2023/11/08 17:14:21;;;;;;;20.02;10.23;;;;;;;;;;5113026;28;20050;-66
2023/11/08 17:17:26;;;;;;;17.95;9.52;;;;;;;;;;5112939;28;20538;-66
2023/11/08 17:20:30;;;;;;;16.58;9.85;;;;;;;;;;5112809;28;20043;-66
2023/11/08 17:23:34;;;;;;;20.60;9.88;;;;;;;;;;5112511;28;20046;-65
2023/11/08 17:26:39;;;;;;;25.75;9.32;;;;;;;;;;5112846;28;20494;-65
2023/11/08 17:29:43;;;;;;;21.40;10.15;;;;;;;;;;5112050;28;20394;-66
2023/11/08 17:32:47;;;;;;;20.23;9.23;;;;;;;;;;5112636;28;20046;-67
2023/11/08 17:35:52;;;;;;;19.48;9.15;;;;;;;;;;5112232;28;20423;-67
2023/11/08 17:38:56;;;;;;;22.48;8.80;;;;;;;;;;5112969;28;20050;-67
2023/11/08 17:42:00;;;;;;;21.58;9.55;;;;;;;;;;5112391;28;20368;-68
2023/11/08 17:45:04;;;;;;;18.25;8.75;;;;;;;;;;5111727;28;20164;-67
2023/11/08 17:48:09;;;;;;;18.92;9.45;;;;;;;;;;5112330;28;20046;-70
2023/11/08 17:51:14;;;;;;;16.58;8.32;;;;;;;;;;5110440;28;20494;-71
2023/11/08 17:54:18;;;;;;;17.13;9.43;;;;;;;;;;5110717;28;20046;-70
2023/11/08 17:57:23;;;;;;;17.08;8.13;;;;;;;;;;5110071;28;20054;-72
2023/11/08 18:00:28;;;;;;;17.98;8.05;;;;;;;;;;5110420;28;20050;-71
2023/11/08 18:03:36;;;;;;;17.40;7.03;;;;;;;;;;5109657;28;20054;-70
2023/11/08 18:06:40;;;;;;;18.17;6.80;;;;;;;;;;5112082;28;20051;-70
2023/11/08 18:09:44;;;;;;;15.60;6.55;;;;;;;;;;5112167;28;20047;-70
2023/11/08 18:12:50;;;;;;;12.02;6.45;;;;;;;;;;5112089;28;20034;-70
2023/11/08 18:15:55;;;;;;;20.60;8.20;;;;;;;;;;5111762;28;20046;-70
2023/11/08 18:18:59;;;;;;;19.70;8.77;;;;;;;;;;5111803;28;20055;-70